sensor_id;sensor_type;location;lat;lon;timestamp;pressure;altitude;pressure_sealevel;temperature;humidity
40954;BME280;26686;50.130;8.710;2023-04-08T00:03:39;100536.66;;;10.00;74.59
40954;BME280;26686;50.130;8.710;2023-04-08T00:08:41;100543.63;;;10.01;74.17
40954;BME280;26686;50.130;8.710;2023-04-08T00:13:43;100538.66;;;9.96;74.33
40954;BME280;26686;50.130;8.710;2023-04-08T00:18:44;100539.00;;;9.91;74.47
40954;BME280;26686;50.130;8.710;2023-04-08T00:23:46;100537.75;;;9.84;74.60
40954;BME280;26686;50.130;8.710;2023-04-08T00:28:47;100537.81;;;9.71;74.85
40954;BME280;26686;50.130;8.710;2023-04-08T00:33:50;100547.78;;;9.68;75.18
40954;BME280;26686;50.130;8.710;2023-04-08T00:38:51;100548.47;;;9.59;75.26
40954;BME280;26686;50.130;8.710;2023-04-08T00:43:53;100548.69;;;9.55;75.53
40954;BME280;26686;50.130;8.710;2023-04-08T00:48:54;100553.72;;;9.47;75.66
40954;BME280;26686;50.130;8.710;2023-04-08T00:53:56;100543.09;;;9.34;75.75
40954;BME280;26686;50.130;8.710;2023-04-08T00:58:59;100551.06;;;9.34;76.05
40954;BME280;26686;50.130;8.710;2023-04-08T01:04:06;100541.09;;;9.25;75.92
40954;BME280;26686;50.130;8.710;2023-04-08T01:09:11;100556.16;;;9.25;75.90
40954;BME280;26686;50.130;8.710;2023-04-08T01:14:18;100553.19;;;9.16;76.09
40954;BME280;26686;50.130;8.710;2023-04-08T01:19:26;100548.94;;;9.14;76.33
40954;BME280;26686;50.130;8.710;2023-04-08T01:24:32;100556.50;;;9.07;76.32
40954;BME280;26686;50.130;8.710;2023-04-08T01:29:37;100559.38;;;9.04;76.53
40954;BME280;26686;50.130;8.710;2023-04-08T01:34:40;100557.97;;;8.98;76.36
40954;BME280;26686;50.130;8.710;2023-04-08T01:39:43;100557.25;;;8.96;76.52
40954;BME280;26686;50.130;8.710;2023-04-08T01:44:45;100559.47;;;8.90;76.70
40954;BME280;26686;50.130;8.710;2023-04-08T01:49:49;100559.16;;;8.81;76.54
40954;BME280;26686;50.130;8.710;2023-04-08T01:54:52;100543.84;;;8.72;77.30
40954;BME280;26686;50.130;8.710;2023-04-08T01:59:56;100548.41;;;8.70;77.31
40954;BME280;26686;50.130;8.710;2023-04-08T02:05:01;100551.47;;;8.64;77.04
40954;BME280;26686;50.130;8.710;2023-04-08T02:10:03;100564.00;;;8.62;77.30
40954;BME280;26686;50.130;8.710;2023-04-08T02:15:04;100571.50;;;8.55;77.19
40954;BME280;26686;50.130;8.710;2023-04-08T02:20:12;100566.63;;;8.49;77.77
40954;BME280;26686;50.130;8.710;2023-04-08T02:25:21;100575.22;;;8.53;77.22
40954;BME280;26686;50.130;8.710;2023-04-08T02:30:24;100573.34;;;8.40;77.67
40954;BME280;26686;50.130;8.710;2023-04-08T02:35:27;100563.56;;;8.28;77.69
40954;BME280;26686;50.130;8.710;2023-04-08T02:40:31;100578.53;;;8.29;78.14
40954;BME280;26686;50.130;8.710;2023-04-08T02:45:41;100580.63;;;8.24;78.16
40954;BME280;26686;50.130;8.710;2023-04-08T02:50:42;100578.56;;;8.14;78.01
40954;BME280;26686;50.130;8.710;2023-04-08T02:55:44;100578.03;;;8.09;78.14
40954;BME280;26686;50.130;8.710;2023-04-08T03:00:45;100586.28;;;8.05;78.02
40954;BME280;26686;50.130;8.710;2023-04-08T03:05:47;100583.94;;;8.00;78.65
40954;BME280;26686;50.130;8.710;2023-04-08T03:10:48;100594.69;;;7.97;78.20
40954;BME280;26686;50.130;8.710;2023-04-08T03:15:50;100591.72;;;7.89;78.02
40954;BME280;26686;50.130;8.710;2023-04-08T03:20:52;100594.66;;;7.84;78.31
40954;BME280;26686;50.130;8.710;2023-04-08T03:25:53;100585.69;;;7.72;78.28
40954;BME280;26686;50.130;8.710;2023-04-08T03:30:55;100593.81;;;7.69;78.64
40954;BME280;26686;50.130;8.710;2023-04-08T03:35:57;100595.06;;;7.64;78.92
40954;BME280;26686;50.130;8.710;2023-04-08T03:40:58;100590.88;;;7.59;78.09
40954;BME280;26686;50.130;8.710;2023-04-08T03:45:59;100595.72;;;7.53;77.42
40954;BME280;26686;50.130;8.710;2023-04-08T03:51:01;100595.34;;;7.59;77.09
40954;BME280;26686;50.130;8.710;2023-04-08T03:56:03;100588.44;;;7.56;76.48
40954;BME280;26686;50.130;8.710;2023-04-08T04:01:04;100601.59;;;7.58;76.20
40954;BME280;26686;50.130;8.710;2023-04-08T04:06:06;100602.44;;;7.58;75.06
40954;BME280;26686;50.130;8.710;2023-04-08T04:11:07;100608.59;;;7.59;74.59
40954;BME280;26686;50.130;8.710;2023-04-08T04:16:09;100607.84;;;7.57;73.91
40954;BME280;26686;50.130;8.710;2023-04-08T04:21:10;100606.31;;;7.53;73.09
40954;BME280;26686;50.130;8.710;2023-04-08T04:26:12;100615.31;;;7.50;73.28
40954;BME280;26686;50.130;8.710;2023-04-08T04:31:21;100613.81;;;7.46;73.61
40954;BME280;26686;50.130;8.710;2023-04-08T04:36:23;100616.53;;;7.44;73.40
40954;BME280;26686;50.130;8.710;2023-04-08T04:41:24;100606.31;;;7.38;73.18
40954;BME280;26686;50.130;8.710;2023-04-08T04:46:27;100619.75;;;7.35;73.17
40954;BME280;26686;50.130;8.710;2023-04-08T04:51:30;100609.44;;;7.31;73.95
40954;BME280;26686;50.130;8.710;2023-04-08T04:56:31;100609.72;;;7.26;73.81
40954;BME280;26686;50.130;8.710;2023-04-08T05:01:33;100625.06;;;7.21;74.31
40954;BME280;26686;50.130;8.710;2023-04-08T05:06:35;100635.75;;;7.19;74.04
40954;BME280;26686;50.130;8.710;2023-04-08T05:11:36;100642.81;;;7.19;74.40
40954;BME280;26686;50.130;8.710;2023-04-08T05:16:38;100641.13;;;7.18;74.09
40954;BME280;26686;50.130;8.710;2023-04-08T05:21:40;100659.66;;;7.18;73.65
40954;BME280;26686;50.130;8.710;2023-04-08T05:26:41;100659.84;;;7.15;73.99
40954;BME280;26686;50.130;8.710;2023-04-08T05:31:43;100657.94;;;7.17;73.74
40954;BME280;26686;50.130;8.710;2023-04-08T05:36:45;100649.59;;;7.08;73.49
40954;BME280;26686;50.130;8.710;2023-04-08T05:41:46;100671.94;;;7.19;74.12
40954;BME280;26686;50.130;8.710;2023-04-08T05:46:48;100649.44;;;7.12;73.84
40954;BME280;26686;50.130;8.710;2023-04-08T05:51:49;100662.41;;;7.31;73.84
40954;BME280;26686;50.130;8.710;2023-04-08T05:56:50;100673.41;;;7.39;73.34
40954;BME280;26686;50.130;8.710;2023-04-08T06:01:52;100679.84;;;7.49;73.25
40954;BME280;26686;50.130;8.710;2023-04-08T06:06:55;100683.91;;;7.55;72.68
40954;BME280;26686;50.130;8.710;2023-04-08T06:12:00;100698.47;;;7.62;72.36
40954;BME280;26686;50.130;8.710;2023-04-08T06:17:01;100694.72;;;7.66;71.94
40954;BME280;26686;50.130;8.710;2023-04-08T06:22:03;100700.88;;;7.81;71.21
40954;BME280;26686;50.130;8.710;2023-04-08T06:27:04;100697.94;;;7.86;70.66
40954;BME280;26686;50.130;8.710;2023-04-08T06:32:06;100709.66;;;7.96;70.54
40954;BME280;26686;50.130;8.710;2023-04-08T06:37:08;100709.00;;;8.07;70.36
40954;BME280;26686;50.130;8.710;2023-04-08T06:42:10;100708.50;;;8.14;70.13
40954;BME280;26686;50.130;8.710;2023-04-08T06:47:11;100721.56;;;8.18;69.99
40954;BME280;26686;50.130;8.710;2023-04-08T06:52:13;100726.38;;;8.25;70.18
40954;BME280;26686;50.130;8.710;2023-04-08T06:57:15;100723.44;;;8.30;69.70
40954;BME280;26686;50.130;8.710;2023-04-08T07:02:16;100734.81;;;8.46;69.93
40954;BME280;26686;50.130;8.710;2023-04-08T07:07:18;100740.09;;;8.61;69.78
40954;BME280;26686;50.130;8.710;2023-04-08T07:12:19;100729.44;;;8.75;69.45
40954;BME280;26686;50.130;8.710;2023-04-08T07:17:21;100737.34;;;8.90;69.05
40954;BME280;26686;50.130;8.710;2023-04-08T07:22:22;100739.94;;;9.04;68.12
40954;BME280;26686;50.130;8.710;2023-04-08T07:27:24;100745.72;;;9.24;68.34
40954;BME280;26686;50.130;8.710;2023-04-08T07:32:25;100742.97;;;9.38;67.74
40954;BME280;26686;50.130;8.710;2023-04-08T07:37:27;100755.78;;;9.59;66.96
40954;BME280;26686;50.130;8.710;2023-04-08T07:42:28;100758.56;;;9.70;65.69
40954;BME280;26686;50.130;8.710;2023-04-08T07:47:30;100763.66;;;9.73;65.31
40954;BME280;26686;50.130;8.710;2023-04-08T07:52:32;100755.34;;;9.65;66.30
40954;BME280;26686;50.130;8.710;2023-04-08T07:57:34;100773.41;;;9.72;65.32
40954;BME280;26686;50.130;8.710;2023-04-08T08:02:35;100782.69;;;9.67;64.62
40954;BME280;26686;50.130;8.710;2023-04-08T08:07:37;100787.44;;;9.62;64.48
40954;BME280;26686;50.130;8.710;2023-04-08T08:12:38;100791.16;;;9.59;65.00
40954;BME280;26686;50.130;8.710;2023-04-08T08:17:40;100797.03;;;9.64;65.06
40954;BME280;26686;50.130;8.710;2023-04-08T08:22:41;100803.41;;;9.62;64.52
40954;BME280;26686;50.130;8.710;2023-04-08T08:27:57;100808.94;;;9.59;63.33
40954;BME280;26686;50.130;8.710;2023-04-08T08:32:58;100817.84;;;9.58;61.89
40954;BME280;26686;50.130;8.710;2023-04-08T08:38:01;100817.00;;;9.57;61.72
40954;BME280;26686;50.130;8.710;2023-04-08T08:43:02;100824.88;;;9.59;62.28
40954;BME280;26686;50.130;8.710;2023-04-08T08:48:04;100816.97;;;9.44;62.78
40954;BME280;26686;50.130;8.710;2023-04-08T08:53:06;100830.41;;;9.55;63.08
40954;BME280;26686;50.130;8.710;2023-04-08T08:58:07;100829.03;;;9.63;64.01
40954;BME280;26686;50.130;8.710;2023-04-08T09:03:22;100831.28;;;9.69;63.36
40954;BME280;26686;50.130;8.710;2023-04-08T09:08:34;100839.19;;;9.83;61.93
40954;BME280;26686;50.130;8.710;2023-04-08T09:13:37;100836.72;;;9.93;62.21
40954;BME280;26686;50.130;8.710;2023-04-08T09:18:39;100837.19;;;10.00;60.56
40954;BME280;26686;50.130;8.710;2023-04-08T09:23:44;100843.97;;;10.04;60.79
40954;BME280;26686;50.130;8.710;2023-04-08T09:29:08;100840.44;;;10.16;60.61
40954;BME280;26686;50.130;8.710;2023-04-08T09:34:27;100839.31;;;10.33;60.22
40954;BME280;26686;50.130;8.710;2023-04-08T09:39:29;100840.94;;;10.36;59.41
40954;BME280;26686;50.130;8.710;2023-04-08T09:44:31;100848.38;;;10.43;57.35
40954;BME280;26686;50.130;8.710;2023-04-08T09:49:45;100806.31;;;10.23;56.46
40954;BME280;26686;50.130;8.710;2023-04-08T10:00:06;100844.50;;;10.60;57.33
40954;BME280;26686;50.130;8.710;2023-04-08T10:05:10;100838.66;;;10.92;56.71
40954;BME280;26686;50.130;8.710;2023-04-08T10:10:13;100838.66;;;10.92;55.28
40954;BME280;26686;50.130;8.710;2023-04-08T10:15:22;100846.63;;;11.29;55.87
40954;BME280;26686;50.130;8.710;2023-04-08T10:25:39;100848.16;;;12.27;52.35
40954;BME280;26686;50.130;8.710;2023-04-08T10:30:46;100836.25;;;13.64;48.65
40954;BME280;26686;50.130;8.710;2023-04-08T10:35:58;100826.41;;;14.69;46.56
40954;BME280;26686;50.130;8.710;2023-04-08T10:41:00;100830.47;;;16.39;43.50
40954;BME280;26686;50.130;8.710;2023-04-08T10:46:02;100825.69;;;17.70;40.41
40954;BME280;26686;50.130;8.710;2023-04-08T10:51:05;100816.19;;;19.22;38.87
40954;BME280;26686;50.130;8.710;2023-04-08T10:56:13;100826.88;;;18.20;40.10
40954;BME280;26686;50.130;8.710;2023-04-08T11:01:18;100828.50;;;16.41;43.09
40954;BME280;26686;50.130;8.710;2023-04-08T11:06:20;100822.66;;;16.08;44.97
40954;BME280;26686;50.130;8.710;2023-04-08T11:11:23;100820.72;;;15.61;46.45
40954;BME280;26686;50.130;8.710;2023-04-08T11:16:29;100818.47;;;15.56;45.79
40954;BME280;26686;50.130;8.710;2023-04-08T11:21:34;100827.44;;;16.14;44.40
40954;BME280;26686;50.130;8.710;2023-04-08T11:26:36;100807.25;;;14.73;46.53
40954;BME280;26686;50.130;8.710;2023-04-08T11:31:39;100822.59;;;14.09;48.79
40954;BME280;26686;50.130;8.710;2023-04-08T11:36:41;100822.16;;;14.04;49.77
40954;BME280;26686;50.130;8.710;2023-04-08T11:41:42;100809.53;;;14.16;48.62
40954;BME280;26686;50.130;8.710;2023-04-08T11:46:51;100823.22;;;14.23;48.35
40954;BME280;26686;50.130;8.710;2023-04-08T11:51:57;100817.56;;;14.16;49.78
40954;BME280;26686;50.130;8.710;2023-04-08T11:56:59;100817.91;;;17.67;43.39
40954;BME280;26686;50.130;8.710;2023-04-08T12:02:02;100823.28;;;17.85;41.58
40954;BME280;26686;50.130;8.710;2023-04-08T12:07:03;100821.00;;;17.54;42.83
40954;BME280;26686;50.130;8.710;2023-04-08T12:12:05;100821.91;;;18.33;41.72
40954;BME280;26686;50.130;8.710;2023-04-08T12:17:06;100814.59;;;18.52;39.84
40954;BME280;26686;50.130;8.710;2023-04-08T12:22:08;100812.94;;;18.67;39.59
40954;BME280;26686;50.130;8.710;2023-04-08T12:27:09;100821.56;;;20.21;38.09
40954;BME280;26686;50.130;8.710;2023-04-08T12:32:11;100814.94;;;25.11;29.79
40954;BME280;26686;50.130;8.710;2023-04-08T12:37:12;100805.44;;;26.68;27.91
40954;BME280;26686;50.130;8.710;2023-04-08T12:42:14;100802.50;;;24.82;29.42
40954;BME280;26686;50.130;8.710;2023-04-08T12:47:15;100794.47;;;22.82;32.20
40954;BME280;26686;50.130;8.710;2023-04-08T12:52:17;100789.34;;;20.90;35.86
40954;BME280;26686;50.130;8.710;2023-04-08T12:57:19;100798.63;;;19.92;36.80
40954;BME280;26686;50.130;8.710;2023-04-08T13:02:21;100784.78;;;18.96;38.42
40954;BME280;26686;50.130;8.710;2023-04-08T13:07:22;100788.75;;;18.41;39.21
40954;BME280;26686;50.130;8.710;2023-04-08T13:12:23;100809.34;;;18.16;40.08
40954;BME280;26686;50.130;8.710;2023-04-08T13:17:25;100809.78;;;17.41;41.78
40954;BME280;26686;50.130;8.710;2023-04-08T13:22:26;100812.06;;;16.72;43.59
40954;BME280;26686;50.130;8.710;2023-04-08T13:27:28;100815.38;;;16.28;45.26
40954;BME280;26686;50.130;8.710;2023-04-08T13:32:29;100810.84;;;15.81;46.08
40954;BME280;26686;50.130;8.710;2023-04-08T13:37:30;100799.28;;;15.51;47.35
40954;BME280;26686;50.130;8.710;2023-04-08T13:42:32;100799.28;;;15.32;47.92
40954;BME280;26686;50.130;8.710;2023-04-08T13:47:34;100809.44;;;15.18;49.17
40954;BME280;26686;50.130;8.710;2023-04-08T13:52:38;100797.81;;;14.89;49.89
40954;BME280;26686;50.130;8.710;2023-04-08T13:57:39;100797.50;;;14.72;50.44
40954;BME280;26686;50.130;8.710;2023-04-08T14:02:40;100809.75;;;14.65;50.82
40954;BME280;26686;50.130;8.710;2023-04-08T14:07:42;100813.19;;;14.46;51.42
40954;BME280;26686;50.130;8.710;2023-04-08T14:12:44;100816.28;;;14.41;51.26
40954;BME280;26686;50.130;8.710;2023-04-08T14:17:46;100817.88;;;14.23;52.22
40954;BME280;26686;50.130;8.710;2023-04-08T14:22:48;100807.16;;;14.23;52.19
40954;BME280;26686;50.130;8.710;2023-04-08T14:27:51;100805.16;;;14.15;52.35
40954;BME280;26686;50.130;8.710;2023-04-08T14:32:58;100800.03;;;14.33;52.70
40954;BME280;26686;50.130;8.710;2023-04-08T14:38:01;100800.16;;;14.31;52.85
40954;BME280;26686;50.130;8.710;2023-04-08T14:43:02;100809.66;;;14.14;53.31
40954;BME280;26686;50.130;8.710;2023-04-08T14:48:04;100798.97;;;14.14;53.72
40954;BME280;26686;50.130;8.710;2023-04-08T14:53:05;100816.19;;;14.22;54.00
40954;BME280;26686;50.130;8.710;2023-04-08T14:58:07;100805.28;;;14.13;54.74
40954;BME280;26686;50.130;8.710;2023-04-08T15:03:09;100809.69;;;14.24;54.40
40954;BME280;26686;50.130;8.710;2023-04-08T15:08:11;100801.25;;;14.29;54.62
40954;BME280;26686;50.130;8.710;2023-04-08T15:13:13;100793.88;;;14.11;55.06
40954;BME280;26686;50.130;8.710;2023-04-08T15:18:15;100790.16;;;14.03;55.26
40954;BME280;26686;50.130;8.710;2023-04-08T15:23:16;100794.41;;;14.05;55.17
40954;BME280;26686;50.130;8.710;2023-04-08T15:28:18;100799.91;;;14.04;55.12
40954;BME280;26686;50.130;8.710;2023-04-08T15:33:19;100802.72;;;13.81;56.36
40954;BME280;26686;50.130;8.710;2023-04-08T15:38:21;100802.78;;;13.91;56.70
40954;BME280;26686;50.130;8.710;2023-04-08T15:43:22;100799.69;;;13.95;56.34
40954;BME280;26686;50.130;8.710;2023-04-08T15:48:24;100784.84;;;13.82;56.82
40954;BME280;26686;50.130;8.710;2023-04-08T15:53:26;100803.75;;;13.69;57.45
40954;BME280;26686;50.130;8.710;2023-04-08T15:58:28;100809.75;;;13.61;58.27
40954;BME280;26686;50.130;8.710;2023-04-08T16:03:29;100816.06;;;13.60;57.74
40954;BME280;26686;50.130;8.710;2023-04-08T16:08:32;100811.50;;;13.51;58.15
40954;BME280;26686;50.130;8.710;2023-04-08T16:13:34;100816.84;;;13.51;58.41
40954;BME280;26686;50.130;8.710;2023-04-08T16:18:39;100818.56;;;13.52;58.38
40954;BME280;26686;50.130;8.710;2023-04-08T16:23:42;100820.44;;;13.40;58.92
40954;BME280;26686;50.130;8.710;2023-04-08T16:28:43;100833.22;;;13.36;58.35
40954;BME280;26686;50.130;8.710;2023-04-08T16:33:44;100835.38;;;13.31;58.39
40954;BME280;26686;50.130;8.710;2023-04-08T16:38:46;100821.56;;;13.15;57.70
40954;BME280;26686;50.130;8.710;2023-04-08T16:43:47;100837.38;;;13.18;57.29
40954;BME280;26686;50.130;8.710;2023-04-08T16:48:49;100841.03;;;13.17;57.39
40954;BME280;26686;50.130;8.710;2023-04-08T16:53:50;100853.06;;;13.11;55.94
40954;BME280;26686;50.130;8.710;2023-04-08T16:58:52;100857.78;;;13.07;55.24
40954;BME280;26686;50.130;8.710;2023-04-08T17:03:54;100865.59;;;12.99;53.92
40954;BME280;26686;50.130;8.710;2023-04-08T17:08:56;100866.09;;;12.93;53.13
40954;BME280;26686;50.130;8.710;2023-04-08T17:13:57;100862.94;;;12.88;53.22
40954;BME280;26686;50.130;8.710;2023-04-08T17:18:59;100875.94;;;12.93;53.20
40954;BME280;26686;50.130;8.710;2023-04-08T17:24:00;100877.28;;;12.87;51.50
40954;BME280;26686;50.130;8.710;2023-04-08T17:29:02;100873.53;;;12.78;51.56
40954;BME280;26686;50.130;8.710;2023-04-08T17:34:03;100884.94;;;12.69;51.85
40954;BME280;26686;50.130;8.710;2023-04-08T17:39:05;100891.88;;;12.60;51.23
40954;BME280;26686;50.130;8.710;2023-04-08T17:44:06;100897.69;;;12.54;51.23
40954;BME280;26686;50.130;8.710;2023-04-08T17:49:08;100894.88;;;12.44;51.95
40954;BME280;26686;50.130;8.710;2023-04-08T17:54:12;100897.19;;;12.37;51.77
40954;BME280;26686;50.130;8.710;2023-04-08T17:59:14;100912.47;;;12.35;51.88
40954;BME280;26686;50.130;8.710;2023-04-08T18:04:15;100914.03;;;12.27;51.77
40954;BME280;26686;50.130;8.710;2023-04-08T18:09:17;100906.13;;;12.14;52.02
40954;BME280;26686;50.130;8.710;2023-04-08T18:14:19;100914.59;;;12.08;52.31
40954;BME280;26686;50.130;8.710;2023-04-08T18:19:20;100922.59;;;12.08;52.89
40954;BME280;26686;50.130;8.710;2023-04-08T18:24:23;100929.47;;;11.99;53.39
40954;BME280;26686;50.130;8.710;2023-04-08T18:29:24;100936.56;;;11.87;53.39
40954;BME280;26686;50.130;8.710;2023-04-08T18:34:26;100947.22;;;11.87;53.60
40954;BME280;26686;50.130;8.710;2023-04-08T18:39:27;100948.56;;;11.81;53.86
40954;BME280;26686;50.130;8.710;2023-04-08T18:44:29;100963.94;;;11.78;53.27
40954;BME280;26686;50.130;8.710;2023-04-08T18:49:30;100958.59;;;11.78;53.91
40954;BME280;26686;50.130;8.710;2023-04-08T18:54:34;100958.44;;;11.68;54.03
40954;BME280;26686;50.130;8.710;2023-04-08T18:59:36;100957.78;;;11.64;53.38
40954;BME280;26686;50.130;8.710;2023-04-08T19:04:37;100969.66;;;11.60;52.90
40954;BME280;26686;50.130;8.710;2023-04-08T19:09:38;100967.22;;;11.57;53.11
40954;BME280;26686;50.130;8.710;2023-04-08T19:14:40;100968.31;;;11.55;53.58
40954;BME280;26686;50.130;8.710;2023-04-08T19:19:42;100975.53;;;11.53;53.61
40954;BME280;26686;50.130;8.710;2023-04-08T19:24:43;100971.94;;;11.41;53.48
40954;BME280;26686;50.130;8.710;2023-04-08T19:29:45;100984.78;;;11.36;53.53
40954;BME280;26686;50.130;8.710;2023-04-08T19:34:46;100976.69;;;11.24;53.91
40954;BME280;26686;50.130;8.710;2023-04-08T19:39:48;100979.91;;;11.17;54.65
40954;BME280;26686;50.130;8.710;2023-04-08T19:44:50;100978.66;;;11.09;54.69
40954;BME280;26686;50.130;8.710;2023-04-08T19:49:51;100984.41;;;11.03;54.72
40954;BME280;26686;50.130;8.710;2023-04-08T19:54:53;100986.00;;;11.06;54.68
40954;BME280;26686;50.130;8.710;2023-04-08T19:59:54;100999.22;;;11.07;54.89
40954;BME280;26686;50.130;8.710;2023-04-08T20:04:56;101003.91;;;11.04;55.01
40954;BME280;26686;50.130;8.710;2023-04-08T20:09:58;100999.53;;;11.03;55.72
40954;BME280;26686;50.130;8.710;2023-04-08T20:15:00;101004.34;;;10.98;56.16
40954;BME280;26686;50.130;8.710;2023-04-08T20:20:04;101003.81;;;10.92;56.54
40954;BME280;26686;50.130;8.710;2023-04-08T20:25:05;101009.03;;;10.94;56.66
40954;BME280;26686;50.130;8.710;2023-04-08T20:30:07;101007.34;;;10.93;56.63
40954;BME280;26686;50.130;8.710;2023-04-08T20:35:10;101008.41;;;10.90;57.00
40954;BME280;26686;50.130;8.710;2023-04-08T20:40:12;101009.56;;;10.86;57.27
40954;BME280;26686;50.130;8.710;2023-04-08T20:45:13;101006.38;;;10.81;57.34
40954;BME280;26686;50.130;8.710;2023-04-08T20:50:15;101000.41;;;10.77;57.44
40954;BME280;26686;50.130;8.710;2023-04-08T20:55:17;101000.63;;;10.74;57.66
40954;BME280;26686;50.130;8.710;2023-04-08T21:00:18;101010.63;;;10.71;57.94
40954;BME280;26686;50.130;8.710;2023-04-08T21:05:20;101002.63;;;10.58;57.98
40954;BME280;26686;50.130;8.710;2023-04-08T21:10:23;101022.66;;;10.64;58.21
40954;BME280;26686;50.130;8.710;2023-04-08T21:15:24;101012.44;;;10.57;58.34
40954;BME280;26686;50.130;8.710;2023-04-08T21:20:26;101003.59;;;10.44;58.69
40954;BME280;26686;50.130;8.710;2023-04-08T21:25:27;101012.84;;;10.38;58.83
40954;BME280;26686;50.130;8.710;2023-04-08T21:30:28;101019.38;;;10.33;58.93
40954;BME280;26686;50.130;8.710;2023-04-08T21:35:30;101010.34;;;10.22;59.03
40954;BME280;26686;50.130;8.710;2023-04-08T21:40:31;101024.38;;;10.24;58.78
40954;BME280;26686;50.130;8.710;2023-04-08T21:45:33;101024.69;;;10.20;58.93
40954;BME280;26686;50.130;8.710;2023-04-08T21:50:36;101017.75;;;10.17;59.22
40954;BME280;26686;50.130;8.710;2023-04-08T21:55:37;101021.56;;;10.13;59.02
40954;BME280;26686;50.130;8.710;2023-04-08T22:00:39;101010.19;;;10.11;58.94
40954;BME280;26686;50.130;8.710;2023-04-08T22:05:40;101022.44;;;10.14;58.89
40954;BME280;26686;50.130;8.710;2023-04-08T22:10:42;101019.88;;;10.12;58.73
40954;BME280;26686;50.130;8.710;2023-04-08T22:15:43;101015.50;;;10.11;58.95
40954;BME280;26686;50.130;8.710;2023-04-08T22:20:44;101016.44;;;10.10;59.17
40954;BME280;26686;50.130;8.710;2023-04-08T22:25:48;101011.34;;;10.07;59.23
40954;BME280;26686;50.130;8.710;2023-04-08T22:30:50;101013.06;;;10.08;58.76
40954;BME280;26686;50.130;8.710;2023-04-08T22:35:55;101008.88;;;10.04;59.02
40954;BME280;26686;50.130;8.710;2023-04-08T22:40:57;101014.41;;;10.01;58.99
40954;BME280;26686;50.130;8.710;2023-04-08T22:45:59;101008.97;;;10.02;58.88
40954;BME280;26686;50.130;8.710;2023-04-08T22:51:00;101004.81;;;9.98;58.99
40954;BME280;26686;50.130;8.710;2023-04-08T22:56:02;100999.16;;;9.90;58.80
40954;BME280;26686;50.130;8.710;2023-04-08T23:01:14;100996.41;;;9.91;58.85
40954;BME280;26686;50.130;8.710;2023-04-08T23:06:17;101010.44;;;9.94;58.82
40954;BME280;26686;50.130;8.710;2023-04-08T23:11:19;101004.78;;;9.85;59.13
40954;BME280;26686;50.130;8.710;2023-04-08T23:16:20;101013.72;;;9.84;59.13
40954;BME280;26686;50.130;8.710;2023-04-08T23:21:22;101016.56;;;9.81;59.12
40954;BME280;26686;50.130;8.710;2023-04-08T23:26:23;101017.44;;;9.82;59.08
40954;BME280;26686;50.130;8.710;2023-04-08T23:31:25;101018.28;;;9.82;59.15
40954;BME280;26686;50.130;8.710;2023-04-08T23:36:27;101008.59;;;9.81;58.89
40954;BME280;26686;50.130;8.710;2023-04-08T23:41:28;101019.44;;;9.78;58.71
40954;BME280;26686;50.130;8.710;2023-04-08T23:46:30;101022.09;;;9.78;58.84
40954;BME280;26686;50.130;8.710;2023-04-08T23:51:31;101029.31;;;9.76;58.75
40954;BME280;26686;50.130;8.710;2023-04-08T23:56:32;101016.22;;;9.73;58.76
